createdAt,value
2022-10-02T00:01:32.826Z,100980.88
2022-10-02T00:04:01.711Z,100984.22
2022-10-02T00:06:37.195Z,100992.75
2022-10-02T00:09:08.112Z,101002.44
2022-10-02T00:11:47.923Z,101005.56
2022-10-02T00:14:18.409Z,101017.94
2022-10-02T00:16:50.037Z,101019.66
2022-10-02T00:19:19.299Z,101026.25
2022-10-02T00:22:31.309Z,101013.06
2022-10-02T00:24:58.911Z,101028.41
2022-10-02T00:27:44.675Z,101025.53
2022-10-02T00:30:16.452Z,101031.63
2022-10-02T00:32:49.799Z,101037.81
2022-10-02T00:35:35.883Z,101033.63
2022-10-02T00:38:46.756Z,101034.00
2022-10-02T00:41:46.215Z,101051.66
2022-10-02T00:44:35.924Z,101041.63
2022-10-02T00:47:12.524Z,101041.63
2022-10-02T00:50:16.913Z,101053.31
2022-10-02T00:52:58.627Z,101050.13
2022-10-02T00:55:28.964Z,101055.91
2022-10-02T00:58:16.070Z,101056.66
2022-10-02T01:00:53.244Z,101045.19
2022-10-02T01:03:26.346Z,101035.34
2022-10-02T01:05:54.027Z,101048.91
2022-10-02T01:08:21.910Z,101034.84
2022-10-02T01:10:49.978Z,101030.53
2022-10-02T01:13:17.684Z,101043.03
2022-10-02T01:15:52.997Z,101044.69
2022-10-02T01:18:21.236Z,101058.25
2022-10-02T01:20:54.642Z,101055.63
2022-10-02T01:23:33.215Z,101060.66
2022-10-02T01:26:01.728Z,101059.38
2022-10-02T01:28:29.896Z,101057.03
2022-10-02T01:31:03.989Z,101046.38
2022-10-02T01:33:32.462Z,101051.38
2022-10-02T01:36:00.650Z,101047.28
2022-10-02T01:38:29.718Z,101051.97
2022-10-02T01:40:57.452Z,101043.78
2022-10-02T01:43:33.213Z,101042.84
2022-10-02T01:46:35.553Z,101029.69
2022-10-02T01:49:22.781Z,101023.00
2022-10-02T01:52:22.852Z,101032.75
2022-10-02T01:55:20.927Z,101036.84
2022-10-02T01:58:06.079Z,101023.13
2022-10-02T02:00:59.717Z,101023.00
2022-10-02T02:03:41.207Z,101032.38
2022-10-02T02:06:39.541Z,101043.91
2022-10-02T02:09:15.869Z,101036.25
2022-10-02T02:11:52.460Z,101050.63
2022-10-02T02:14:46.931Z,101055.25
2022-10-02T02:17:19.171Z,101052.94
2022-10-02T02:19:52.465Z,101052.31
2022-10-02T02:22:26.768Z,101060.78
2022-10-02T02:25:08.031Z,101062.84
2022-10-02T02:27:43.184Z,101062.91
2022-10-02T02:30:14.150Z,101048.00
2022-10-02T02:32:53.474Z,101053.06
2022-10-02T02:35:27.563Z,101068.25
2022-10-02T02:38:03.633Z,101070.19
2022-10-02T02:40:36.350Z,101071.03
2022-10-02T02:43:14.430Z,101073.06
2022-10-02T02:45:49.523Z,101077.72
2022-10-02T02:48:25.677Z,101064.00
2022-10-02T02:51:08.242Z,101074.13
2022-10-02T02:53:40.646Z,101073.16
2022-10-02T02:56:13.999Z,101089.44
2022-10-02T02:58:51.704Z,101095.69
2022-10-02T03:01:19.762Z,101095.47
2022-10-02T03:03:47.863Z,101092.94
2022-10-02T03:06:22.098Z,101100.69
2022-10-02T03:08:51.717Z,101099.91
2022-10-02T03:11:50.465Z,101103.28
2022-10-02T03:14:47.791Z,101111.50
2022-10-02T03:17:39.518Z,101111.91
2022-10-02T03:20:29.035Z,101115.25
2022-10-02T03:23:18.389Z,101130.13
2022-10-02T03:25:53.137Z,101124.16
2022-10-02T03:28:53.718Z,101136.69
2022-10-02T03:31:20.196Z,101124.34
2022-10-02T03:33:50.318Z,101138.41
2022-10-02T03:36:20.667Z,101124.94
2022-10-02T03:39:00.736Z,101120.31
2022-10-02T03:41:37.118Z,101128.03
2022-10-02T03:44:04.796Z,101136.06
2022-10-02T03:46:32.579Z,101140.97
2022-10-02T03:49:00.299Z,101141.56
2022-10-02T03:51:28.044Z,101142.13
2022-10-02T03:53:55.746Z,101156.03
2022-10-02T03:56:29.193Z,101162.06
2022-10-02T03:59:01.386Z,101140.72
2022-10-02T04:01:48.209Z,101141.06
2022-10-02T04:04:23.366Z,101149.03
2022-10-02T04:07:02.768Z,101150.97
2022-10-02T04:09:55.065Z,101143.75
2022-10-02T04:12:33.234Z,101148.06
2022-10-02T04:15:07.059Z,101159.41
2022-10-02T04:17:44.966Z,101164.13
2022-10-02T04:20:37.380Z,101163.34
2022-10-02T04:23:15.242Z,101158.38
2022-10-02T04:25:52.583Z,101163.06
2022-10-02T04:28:26.543Z,101174.31
2022-10-02T04:30:54.335Z,101168.81
2022-10-02T04:33:24.830Z,101174.59
2022-10-02T04:36:10.438Z,101180.63
2022-10-02T04:39:09.552Z,101185.13
2022-10-02T04:41:42.669Z,101188.09
2022-10-02T04:44:30.159Z,101188.59
2022-10-02T04:47:16.339Z,101197.09
2022-10-02T04:49:56.376Z,101185.88
2022-10-02T04:52:33.048Z,101195.44
2022-10-02T04:55:42.088Z,101203.44
2022-10-02T04:58:33.699Z,101202.59
2022-10-02T05:01:07.298Z,101200.97
2022-10-02T05:03:35.098Z,101203.97
2022-10-02T05:06:33.318Z,101196.31
2022-10-02T05:09:12.178Z,101191.38
2022-10-02T05:11:57.822Z,101193.56
2022-10-02T05:14:45.289Z,101193.59
2022-10-02T05:17:50.868Z,101198.81
2022-10-02T05:20:30.339Z,101197.97
2022-10-02T05:23:19.500Z,101201.22
2022-10-02T05:26:20.884Z,101198.97
2022-10-02T05:29:17.456Z,101206.41
2022-10-02T05:32:08.478Z,101206.34
2022-10-02T05:34:49.360Z,101196.16
2022-10-02T05:37:44.288Z,101203.59
2022-10-02T05:40:26.799Z,101199.41
2022-10-02T05:43:12.041Z,101204.38
2022-10-02T05:45:44.510Z,101204.38
2022-10-02T05:48:27.281Z,101215.34
2022-10-02T05:51:10.829Z,101216.53
2022-10-02T05:53:45.543Z,101220.88
2022-10-02T05:56:39.354Z,101221.13
2022-10-02T05:59:29.596Z,101227.63
2022-10-02T06:02:02.682Z,101235.25
2022-10-02T06:04:44.311Z,101234.63
2022-10-02T06:07:18.043Z,101231.06
2022-10-02T06:09:51.411Z,101233.50
2022-10-02T06:12:30.686Z,101236.66
2022-10-02T06:15:04.465Z,101247.59
2022-10-02T06:17:40.933Z,101235.22
2022-10-02T06:20:34.766Z,101254.47
2022-10-02T06:23:06.878Z,101264.91
2022-10-02T06:25:43.382Z,101272.31
2022-10-02T06:28:26.697Z,101259.34
2022-10-02T06:31:03.899Z,101257.41
2022-10-02T06:33:33.360Z,101270.56
2022-10-02T06:36:22.598Z,101278.50
2022-10-02T06:39:09.219Z,101274.03
2022-10-02T06:41:48.795Z,101279.28
2022-10-02T06:44:25.056Z,101273.75
2022-10-02T06:47:25.545Z,101276.16
2022-10-02T06:50:11.872Z,101301.75
2022-10-02T06:52:45.561Z,101309.41
2022-10-02T06:55:25.368Z,101311.06
2022-10-02T06:58:24.736Z,101315.81
2022-10-02T07:01:03.382Z,101311.97
2022-10-02T07:03:46.010Z,101309.81
2022-10-02T07:06:27.086Z,101303.78
2022-10-02T07:09:12.971Z,101309.38
2022-10-02T07:12:04.267Z,101314.38
2022-10-02T07:15:16.263Z,101326.69
2022-10-02T07:18:09.024Z,101339.41
2022-10-02T07:20:58.009Z,101335.03
2022-10-02T07:23:42.212Z,101327.09
2022-10-02T07:26:42.850Z,101322.41
2022-10-02T07:29:46.115Z,101325.34
2022-10-02T07:32:49.213Z,101323.63
2022-10-02T07:35:35.133Z,101310.91
2022-10-02T07:38:08.732Z,101316.06
2022-10-02T07:40:48.367Z,101327.03
2022-10-02T07:43:40.006Z,101329.38
2022-10-02T07:46:18.320Z,101324.97
2022-10-02T07:49:07.779Z,101327.72
2022-10-02T07:51:51.457Z,101328.47
2022-10-02T07:54:46.228Z,101339.38
2022-10-02T07:57:54.570Z,101336.50
2022-10-02T08:00:25.837Z,101326.38
2022-10-02T08:03:01.756Z,101328.97
2022-10-02T08:05:45.406Z,101330.22
2022-10-02T08:08:21.867Z,101327.44
2022-10-02T08:11:10.882Z,101322.13
2022-10-02T08:13:59.250Z,101320.97
2022-10-02T08:16:43.112Z,101317.88
2022-10-02T08:19:22.386Z,101315.88
2022-10-02T08:22:03.897Z,101315.56
2022-10-02T08:24:47.888Z,101305.88
2022-10-02T08:27:45.718Z,101319.41
2022-10-02T08:30:18.498Z,101313.50
2022-10-02T08:32:48.162Z,101310.94
2022-10-02T08:35:19.214Z,101298.84
2022-10-02T08:38:14.016Z,101309.06
2022-10-02T08:41:05.004Z,101307.84
2022-10-02T08:44:10.902Z,101296.34
2022-10-02T08:47:07.431Z,101304.78
2022-10-02T08:49:59.737Z,101299.81
2022-10-02T08:53:01.764Z,101304.28
2022-10-02T08:55:55.395Z,101313.75
2022-10-02T08:58:59.529Z,101302.19
2022-10-02T09:02:09.538Z,101297.50
2022-10-02T09:04:38.337Z,101291.63
2022-10-02T09:07:41.412Z,101294.97
2022-10-02T09:10:47.705Z,101292.28
2022-10-02T09:13:24.428Z,101278.69
2022-10-02T09:16:35.471Z,101281.03
2022-10-02T09:19:19.359Z,101271.97
2022-10-02T09:21:51.270Z,101279.50
2022-10-02T09:24:50.047Z,101288.38
2022-10-02T09:27:42.725Z,101273.81
2022-10-02T09:30:24.614Z,101274.41
2022-10-02T09:33:39.409Z,101283.44
2022-10-02T09:36:37.493Z,101260.91
2022-10-02T09:39:19.534Z,101257.63
2022-10-02T09:42:45.724Z,101260.44
2022-10-02T09:45:22.777Z,101249.22
2022-10-02T09:48:07.137Z,101254.81
2022-10-02T09:51:07.039Z,101254.50
2022-10-02T09:53:49.538Z,101252.53
2022-10-02T09:56:29.345Z,101242.91
2022-10-02T09:59:34.933Z,101242.78
2022-10-02T10:02:33.642Z,101239.88
2022-10-02T10:05:13.731Z,101236.72
2022-10-02T10:07:59.510Z,101234.38
2022-10-02T10:11:00.696Z,101233.94
2022-10-02T10:13:52.991Z,101233.56
2022-10-02T10:16:44.893Z,101241.16
2022-10-02T10:19:42.131Z,101237.34
2022-10-02T10:22:19.336Z,101229.13
2022-10-02T10:25:05.763Z,101235.06
2022-10-02T10:28:08.183Z,101232.72
2022-10-02T10:31:05.542Z,101242.00
2022-10-02T10:33:54.913Z,101239.16
2022-10-02T10:36:56.293Z,101227.78
2022-10-02T10:39:36.054Z,101231.75
2022-10-02T10:42:40.947Z,101215.06
2022-10-02T10:46:08.772Z,101207.00
2022-10-02T10:49:02.789Z,101225.31
2022-10-02T10:51:41.057Z,101224.50
2022-10-02T10:54:27.100Z,101228.91
2022-10-02T10:57:29.746Z,101230.97
2022-10-02T11:00:03.444Z,101213.16
2022-10-02T11:02:53.458Z,101212.53
2022-10-02T11:05:42.926Z,101209.09
2022-10-02T11:08:19.611Z,101206.13
2022-10-02T11:11:02.371Z,101214.69
2022-10-02T11:13:39.931Z,101212.44
2022-10-02T11:16:34.667Z,101196.53
2022-10-02T11:19:33.592Z,101197.53
2022-10-02T11:22:10.029Z,101191.50
2022-10-02T11:24:50.541Z,101196.81
2022-10-02T11:27:27.104Z,101196.59
2022-10-02T11:30:03.593Z,101193.25
2022-10-02T11:32:37.095Z,101187.28
2022-10-02T11:35:26.546Z,101184.78
2022-10-02T11:38:32.695Z,101176.69
2022-10-02T11:41:22.909Z,101180.72
2022-10-02T11:44:17.072Z,101180.03
2022-10-02T11:47:03.165Z,101162.91
2022-10-02T11:49:53.641Z,101148.97
2022-10-02T11:52:37.519Z,101141.78
2022-10-02T11:55:22.262Z,101155.06
2022-10-02T11:58:06.626Z,101152.81
2022-10-02T12:00:45.415Z,101146.06
2022-10-02T12:03:31.502Z,101138.50
2022-10-02T12:06:24.192Z,101139.84
2022-10-02T12:09:09.608Z,101133.22
2022-10-02T12:11:42.968Z,101132.59
2022-10-02T12:14:36.536Z,101119.59
2022-10-02T12:17:33.338Z,101115.16
2022-10-02T12:20:40.390Z,101122.66
2022-10-02T12:23:36.030Z,101118.81
2022-10-02T12:26:38.313Z,101108.53
2022-10-02T12:29:10.036Z,101101.38
2022-10-02T12:31:51.570Z,101097.44
2022-10-02T12:34:38.517Z,101089.34
2022-10-02T12:37:47.580Z,101088.22
2022-10-02T12:40:37.369Z,101080.19
2022-10-02T12:43:29.291Z,101072.16
2022-10-02T12:46:21.467Z,101069.63
2022-10-02T12:48:49.429Z,101063.31
2022-10-02T12:51:55.581Z,101067.56
2022-10-02T12:54:41.629Z,101057.72
2022-10-02T12:57:41.144Z,101060.44
2022-10-02T13:00:18.485Z,101056.28
2022-10-02T13:03:01.850Z,101051.75
2022-10-02T13:05:57.409Z,101047.72
2022-10-02T13:08:46.939Z,101046.06
2022-10-02T13:11:35.467Z,101041.03
2022-10-02T13:14:32.546Z,101033.88
2022-10-02T13:17:29.276Z,101028.03
2022-10-02T13:20:21.832Z,101023.91
2022-10-02T13:23:01.086Z,101023.03
2022-10-02T13:25:39.760Z,101014.31
2022-10-02T13:28:36.528Z,101007.47
2022-10-02T13:31:36.706Z,101012.50
2022-10-02T13:34:11.919Z,101019.63
2022-10-02T13:36:52.301Z,101015.94
2022-10-02T13:39:49.187Z,101008.66
2022-10-02T13:42:30.272Z,101003.88
2022-10-02T13:45:16.200Z,100996.28
2022-10-02T13:47:59.034Z,101002.06
2022-10-02T13:50:45.368Z,101006.06
2022-10-02T13:53:41.085Z,100993.91
2022-10-02T13:56:26.755Z,100983.38
2022-10-02T13:59:00.190Z,100975.06
2022-10-02T14:01:36.625Z,100970.78
2022-10-02T14:04:23.584Z,100961.38
2022-10-02T14:07:05.471Z,100960.75
2022-10-02T14:09:58.015Z,100946.94
2022-10-02T14:12:33.800Z,100943.00
2022-10-02T14:15:13.517Z,100951.09
2022-10-02T14:17:59.902Z,100940.63
2022-10-02T14:20:36.506Z,100935.06
2022-10-02T14:23:04.271Z,100929.25
2022-10-02T14:25:49.106Z,100936.56
2022-10-02T14:28:26.011Z,100940.34
2022-10-02T14:31:08.285Z,100928.28
2022-10-02T14:34:00.944Z,100933.25
2022-10-02T14:36:40.525Z,100933.13
2022-10-02T14:39:20.323Z,100931.00
2022-10-02T14:41:58.926Z,100926.50
2022-10-02T14:45:08.388Z,100922.94
2022-10-02T14:47:58.003Z,100928.19
2022-10-02T14:50:43.799Z,100928.00
2022-10-02T14:53:43.379Z,100923.25
2022-10-02T14:56:38.672Z,100927.03
2022-10-02T14:59:38.118Z,100920.94
2022-10-02T15:02:13.958Z,100918.41
2022-10-02T15:05:09.609Z,100916.78
2022-10-02T15:07:42.508Z,100900.16
2022-10-02T15:10:18.844Z,100904.72
2022-10-02T15:13:01.978Z,100900.59
2022-10-02T15:15:43.544Z,100900.22
2022-10-02T15:18:40.731Z,100904.78
2022-10-02T15:21:30.970Z,100890.59
2022-10-02T15:24:14.106Z,100888.81
2022-10-02T15:27:08.648Z,100885.56
2022-10-02T15:29:51.654Z,100880.88
2022-10-02T15:32:28.653Z,100873.53
2022-10-02T15:35:15.532Z,100874.84
2022-10-02T15:38:18.354Z,100875.06
2022-10-02T15:41:04.377Z,100873.31
2022-10-02T15:43:35.332Z,100870.50
2022-10-02T15:46:31.941Z,100874.25
2022-10-02T15:49:33.096Z,100864.78
2022-10-02T15:52:13.570Z,100864.19
2022-10-02T15:55:02.493Z,100857.78
2022-10-02T15:57:49.471Z,100864.53
2022-10-02T16:00:21.408Z,100859.09
2022-10-02T16:02:54.937Z,100865.94
2022-10-02T16:05:44.212Z,100853.72
2022-10-02T16:08:25.364Z,100859.25
2022-10-02T16:11:19.075Z,100852.50
2022-10-02T16:13:55.645Z,100860.25
2022-10-02T16:19:35.820Z,100856.59
2022-10-02T16:22:28.250Z,100845.88
2022-10-02T16:25:11.922Z,100852.09
2022-10-02T16:27:53.069Z,100844.22
2022-10-02T16:30:24.340Z,100838.03
2022-10-02T16:33:09.262Z,100840.75
2022-10-02T16:35:50.373Z,100842.09
2022-10-02T16:38:41.419Z,100839.25
2022-10-02T16:41:36.984Z,100842.75
2022-10-02T16:44:34.746Z,100837.91
2022-10-02T16:47:05.372Z,100837.28
2022-10-02T16:49:45.150Z,100842.16
2022-10-02T16:52:27.730Z,100845.34
2022-10-02T16:55:06.512Z,100839.56
2022-10-02T16:57:43.335Z,100842.16
2022-10-02T17:00:25.681Z,100843.09
2022-10-02T17:03:02.399Z,100846.47
2022-10-02T17:05:53.420Z,100845.78
2022-10-02T17:08:23.209Z,100847.06
2022-10-02T17:13:42.916Z,100842.31
2022-10-02T17:16:12.387Z,100836.59
2022-10-02T17:18:58.082Z,100843.22
2022-10-02T17:21:38.611Z,100848.69
2022-10-02T17:24:18.821Z,100848.34
2022-10-02T17:27:01.938Z,100848.78
2022-10-02T17:29:39.067Z,100839.88
2022-10-02T17:32:10.235Z,100851.34
2022-10-02T17:34:59.301Z,100851.34
2022-10-02T17:37:48.452Z,100848.56
2022-10-02T17:41:06.518Z,100843.47
2022-10-02T17:43:50.402Z,100845.91
2022-10-02T17:46:38.502Z,100849.50
2022-10-02T17:49:22.500Z,100848.09
2022-10-02T17:52:19.168Z,100851.81
2022-10-02T17:55:53.148Z,100851.19
2022-10-02T17:58:48.878Z,100853.84
2022-10-02T18:01:31.942Z,100854.44
2022-10-02T18:04:17.062Z,100855.41
2022-10-02T18:07:15.604Z,100853.97
2022-10-02T18:10:10.995Z,100851.97
2022-10-02T18:12:53.855Z,100864.59
2022-10-02T18:15:32.674Z,100854.28
2022-10-02T18:18:08.408Z,100863.91
2022-10-02T18:21:01.490Z,100862.63
2022-10-02T18:23:38.170Z,100864.66
2022-10-02T18:26:39.591Z,100872.31
2022-10-02T18:29:28.634Z,100868.53
2022-10-02T18:32:15.867Z,100864.78
2022-10-02T18:35:14.419Z,100856.69
2022-10-02T18:37:50.650Z,100854.94
2022-10-02T18:40:22.643Z,100862.75
2022-10-02T18:43:27.072Z,100857.91
2022-10-02T18:46:10.468Z,100852.34
2022-10-02T18:49:08.007Z,100860.19
2022-10-02T18:51:37.325Z,100857.75
2022-10-02T18:54:11.731Z,100859.09
2022-10-02T18:57:02.624Z,100863.50
2022-10-02T18:59:56.374Z,100869.19
2022-10-02T19:02:26.666Z,100859.09
2022-10-02T19:05:22.822Z,100869.97
2022-10-02T19:08:08.758Z,100865.34
2022-10-02T19:10:36.802Z,100861.66
2022-10-02T19:13:17.631Z,100867.38
2022-10-02T19:15:48.960Z,100869.00
2022-10-02T19:18:19.876Z,100866.59
2022-10-02T19:21:08.893Z,100866.72
2022-10-02T19:23:47.525Z,100863.06
2022-10-02T19:26:24.205Z,100864.75
2022-10-02T19:29:20.349Z,100856.88
2022-10-02T19:31:48.257Z,100864.75
2022-10-02T19:34:20.972Z,100878.09
2022-10-02T19:36:54.476Z,100874.97
2022-10-02T19:39:37.640Z,100877.47
2022-10-02T19:42:18.485Z,100876.16
2022-10-02T19:44:49.898Z,100874.53
2022-10-02T19:47:37.684Z,100885.63
2022-10-02T19:50:08.167Z,100892.31
2022-10-02T19:52:52.043Z,100887.25
2022-10-02T19:55:27.447Z,100886.13
2022-10-02T19:58:04.667Z,100886.63
2022-10-02T20:00:38.645Z,100892.69
2022-10-02T20:03:20.118Z,100888.94
2022-10-02T20:05:53.377Z,100890.75
2022-10-02T20:08:29.401Z,100895.00
2022-10-02T20:11:28.668Z,100892.84
2022-10-02T20:14:28.169Z,100896.63
2022-10-02T20:17:11.001Z,100897.25
2022-10-02T20:19:52.027Z,100899.88
2022-10-02T20:22:29.233Z,100897.75
2022-10-02T20:25:21.940Z,100896.28
2022-10-02T20:27:57.062Z,100893.84
2022-10-02T20:30:33.028Z,100897.91
2022-10-02T20:33:07.291Z,100898.09
2022-10-02T20:35:45.136Z,100886.69
2022-10-02T20:38:25.623Z,100888.31
2022-10-02T20:40:56.582Z,100898.09
2022-10-02T20:43:45.128Z,100906.88
2022-10-02T20:46:29.805Z,100905.06
2022-10-02T20:49:08.490Z,100899.06
2022-10-02T20:52:14.569Z,100895.47
2022-10-02T20:54:54.356Z,100898.38
2022-10-02T20:58:01.461Z,100897.72
2022-10-02T21:00:57.738Z,100896.69
2022-10-02T21:03:34.487Z,100897.03
2022-10-02T21:06:08.678Z,100898.66
2022-10-02T21:08:56.208Z,100904.69
2022-10-02T21:11:50.826Z,100897.31
2022-10-02T21:14:37.310Z,100900.25
2022-10-02T21:17:13.861Z,100895.50
2022-10-02T21:19:44.322Z,100904.47
2022-10-02T21:22:43.298Z,100896.59
2022-10-02T21:25:41.775Z,100906.84
2022-10-02T21:28:43.356Z,100908.19
2022-10-02T21:31:20.327Z,100916.53
2022-10-02T21:34:30.411Z,100916.19
2022-10-02T21:37:22.444Z,100915.91
2022-10-02T21:40:08.501Z,100918.84
2022-10-02T21:42:42.272Z,100918.84
2022-10-02T21:46:08.707Z,100923.75
2022-10-02T21:48:55.242Z,100924.88
2022-10-02T21:51:41.640Z,100920.38
2022-10-02T21:54:31.122Z,100921.34
2022-10-02T21:57:35.322Z,100910.13
2022-10-02T22:00:22.309Z,100918.75
2022-10-02T22:03:10.311Z,100929.34
2022-10-02T22:06:00.180Z,100942.72
2022-10-02T22:09:07.264Z,100937.84
2022-10-02T22:11:47.765Z,100938.78
2022-10-02T22:14:39.390Z,100925.44
2022-10-02T22:17:36.426Z,100928.84
2022-10-02T22:20:25.947Z,100932.38
2022-10-02T22:23:14.253Z,100933.91
2022-10-02T22:26:09.782Z,100935.22
2022-10-02T22:28:50.645Z,100938.00
2022-10-02T22:31:55.580Z,100941.25
2022-10-02T22:34:28.913Z,100948.09
2022-10-02T22:37:40.530Z,100939.63
2022-10-02T22:40:14.277Z,100934.56
2022-10-02T22:42:50.295Z,100930.84
2022-10-02T22:45:22.036Z,100941.75
2022-10-02T22:47:54.303Z,100938.16
2022-10-02T22:50:50.825Z,100939.78
2022-10-02T22:53:30.258Z,100942.25
2022-10-02T22:55:58.604Z,100940.63
2022-10-02T22:58:53.324Z,100943.72
2022-10-02T23:01:28.792Z,100938.97
2022-10-02T23:04:19.007Z,100943.38
2022-10-02T23:06:52.740Z,100949.22
2022-10-02T23:09:49.621Z,100931.94
2022-10-02T23:12:41.918Z,100932.59
2022-10-02T23:15:21.659Z,100948.69
2022-10-02T23:18:12.115Z,100937.50
2022-10-02T23:20:46.953Z,100936.84
2022-10-02T23:23:28.358Z,100936.22
2022-10-02T23:25:58.937Z,100934.72
2022-10-02T23:28:37.385Z,100931.94
2022-10-02T23:31:31.538Z,100941.09
2022-10-02T23:34:19.271Z,100937.50
2022-10-02T23:36:54.517Z,100932.78
2022-10-02T23:39:31.167Z,100931.63
2022-10-02T23:41:59.728Z,100913.84
2022-10-02T23:44:42.967Z,100918.28
2022-10-02T23:47:11.173Z,100919.91
2022-10-02T23:49:53.950Z,100930.16
2022-10-02T23:53:07.518Z,100943.50
2022-10-02T23:56:03.920Z,100935.16
2022-10-02T23:59:10.705Z,100941.06
